sensor_id;sensor_type;location;lat;lon;timestamp;temperature;humidity
24226;DHT22;51462;51.422;5.514;2023-07-29T00:00:38;20.00;99.90
24226;DHT22;51462;51.422;5.514;2023-07-29T00:03:04;19.90;99.90
24226;DHT22;51462;51.422;5.514;2023-07-29T00:05:30;20.00;99.90
24226;DHT22;51462;51.422;5.514;2023-07-29T00:07:56;20.10;99.90
24226;DHT22;51462;51.422;5.514;2023-07-29T00:10:22;20.10;99.90
24226;DHT22;51462;51.422;5.514;2023-07-29T00:12:47;20.00;99.90
24226;DHT22;51462;51.422;5.514;2023-07-29T00:15:13;19.90;99.90
24226;DHT22;51462;51.422;5.514;2023-07-29T00:17:39;19.90;99.90
24226;DHT22;51462;51.422;5.514;2023-07-29T00:20:06;19.80;99.90
24226;DHT22;51462;51.422;5.514;2023-07-29T00:22:32;19.80;99.90
24226;DHT22;51462;51.422;5.514;2023-07-29T00:24:58;19.80;99.90
24226;DHT22;51462;51.422;5.514;2023-07-29T00:27:25;19.90;99.90
24226;DHT22;51462;51.422;5.514;2023-07-29T00:29:50;19.90;99.90
24226;DHT22;51462;51.422;5.514;2023-07-29T00:32:16;19.90;99.90
24226;DHT22;51462;51.422;5.514;2023-07-29T00:34:42;19.90;99.90
24226;DHT22;51462;51.422;5.514;2023-07-29T00:37:08;19.80;99.90
24226;DHT22;51462;51.422;5.514;2023-07-29T00:39:33;19.90;99.90
24226;DHT22;51462;51.422;5.514;2023-07-29T00:41:59;19.90;99.90
24226;DHT22;51462;51.422;5.514;2023-07-29T00:44:25;19.90;99.90
24226;DHT22;51462;51.422;5.514;2023-07-29T00:46:52;19.80;99.90
24226;DHT22;51462;51.422;5.514;2023-07-29T00:49:19;19.70;99.90
24226;DHT22;51462;51.422;5.514;2023-07-29T00:51:46;19.80;99.90
24226;DHT22;51462;51.422;5.514;2023-07-29T00:54:13;19.70;99.90
24226;DHT22;51462;51.422;5.514;2023-07-29T00:56:39;19.70;99.90
24226;DHT22;51462;51.422;5.514;2023-07-29T00:59:05;19.60;99.90
24226;DHT22;51462;51.422;5.514;2023-07-29T01:01:31;19.60;99.90
24226;DHT22;51462;51.422;5.514;2023-07-29T01:03:57;19.50;99.90
24226;DHT22;51462;51.422;5.514;2023-07-29T01:06:53;19.50;99.90
24226;DHT22;51462;51.422;5.514;2023-07-29T01:09:25;19.40;99.90
24226;DHT22;51462;51.422;5.514;2023-07-29T01:14:46;19.50;99.90
24226;DHT22;51462;51.422;5.514;2023-07-29T01:17:19;19.60;99.90
24226;DHT22;51462;51.422;5.514;2023-07-29T01:20:02;19.60;99.90
24226;DHT22;51462;51.422;5.514;2023-07-29T01:22:32;19.50;99.90
24226;DHT22;51462;51.422;5.514;2023-07-29T01:24:59;19.40;99.90
24226;DHT22;51462;51.422;5.514;2023-07-29T01:27:25;19.40;99.90
24226;DHT22;51462;51.422;5.514;2023-07-29T01:29:51;19.30;99.90
24226;DHT22;51462;51.422;5.514;2023-07-29T01:35:00;19.30;99.90
24226;DHT22;51462;51.422;5.514;2023-07-29T01:37:33;19.30;99.90
24226;DHT22;51462;51.422;5.514;2023-07-29T01:40:00;19.30;99.90
24226;DHT22;51462;51.422;5.514;2023-07-29T01:42:26;19.40;99.90
24226;DHT22;51462;51.422;5.514;2023-07-29T01:44:52;19.30;99.90
24226;DHT22;51462;51.422;5.514;2023-07-29T01:47:18;19.30;99.90
24226;DHT22;51462;51.422;5.514;2023-07-29T01:49:44;19.30;99.90
24226;DHT22;51462;51.422;5.514;2023-07-29T01:52:09;19.10;99.90
24226;DHT22;51462;51.422;5.514;2023-07-29T01:54:35;19.20;99.90
24226;DHT22;51462;51.422;5.514;2023-07-29T01:57:00;19.00;99.90
24226;DHT22;51462;51.422;5.514;2023-07-29T01:59:26;19.00;99.90
24226;DHT22;51462;51.422;5.514;2023-07-29T02:01:52;19.00;99.90
24226;DHT22;51462;51.422;5.514;2023-07-29T02:04:17;18.90;99.90
24226;DHT22;51462;51.422;5.514;2023-07-29T02:06:43;18.90;99.90
24226;DHT22;51462;51.422;5.514;2023-07-29T02:09:09;18.90;99.90
24226;DHT22;51462;51.422;5.514;2023-07-29T02:11:34;18.90;99.90
24226;DHT22;51462;51.422;5.514;2023-07-29T02:14:00;18.80;99.90
24226;DHT22;51462;51.422;5.514;2023-07-29T02:16:26;18.70;99.90
24226;DHT22;51462;51.422;5.514;2023-07-29T02:18:51;18.70;99.90
24226;DHT22;51462;51.422;5.514;2023-07-29T02:21:17;18.60;99.90
24226;DHT22;51462;51.422;5.514;2023-07-29T02:23:43;18.60;99.90
24226;DHT22;51462;51.422;5.514;2023-07-29T02:26:08;18.60;99.90
24226;DHT22;51462;51.422;5.514;2023-07-29T02:28:34;18.60;99.90
24226;DHT22;51462;51.422;5.514;2023-07-29T02:31:13;18.60;99.90
24226;DHT22;51462;51.422;5.514;2023-07-29T02:33:39;18.50;99.90
24226;DHT22;51462;51.422;5.514;2023-07-29T02:36:05;18.50;99.90
24226;DHT22;51462;51.422;5.514;2023-07-29T02:38:30;18.60;99.90
24226;DHT22;51462;51.422;5.514;2023-07-29T02:40:56;18.50;99.90
24226;DHT22;51462;51.422;5.514;2023-07-29T02:43:21;18.60;99.90
24226;DHT22;51462;51.422;5.514;2023-07-29T02:45:47;18.50;99.90
24226;DHT22;51462;51.422;5.514;2023-07-29T02:48:13;18.30;99.90
24226;DHT22;51462;51.422;5.514;2023-07-29T02:50:38;18.40;99.90
24226;DHT22;51462;51.422;5.514;2023-07-29T02:53:04;18.50;99.90
24226;DHT22;51462;51.422;5.514;2023-07-29T02:55:30;18.40;99.90
24226;DHT22;51462;51.422;5.514;2023-07-29T02:57:56;18.40;99.90
24226;DHT22;51462;51.422;5.514;2023-07-29T03:00:21;18.40;99.90
24226;DHT22;51462;51.422;5.514;2023-07-29T03:02:47;18.50;99.90
24226;DHT22;51462;51.422;5.514;2023-07-29T03:05:13;18.70;99.90
24226;DHT22;51462;51.422;5.514;2023-07-29T03:07:38;18.40;99.90
24226;DHT22;51462;51.422;5.514;2023-07-29T03:10:04;18.50;99.90
24226;DHT22;51462;51.422;5.514;2023-07-29T03:12:30;18.30;99.90
24226;DHT22;51462;51.422;5.514;2023-07-29T03:14:56;18.40;99.90
24226;DHT22;51462;51.422;5.514;2023-07-29T03:17:22;18.30;99.90
24226;DHT22;51462;51.422;5.514;2023-07-29T03:19:47;18.40;99.90
24226;DHT22;51462;51.422;5.514;2023-07-29T03:22:13;18.40;99.90
24226;DHT22;51462;51.422;5.514;2023-07-29T03:24:38;18.30;99.90
24226;DHT22;51462;51.422;5.514;2023-07-29T03:27:04;18.20;99.90
24226;DHT22;51462;51.422;5.514;2023-07-29T03:29:30;18.30;99.90
24226;DHT22;51462;51.422;5.514;2023-07-29T03:31:56;18.40;99.90
24226;DHT22;51462;51.422;5.514;2023-07-29T03:34:22;18.50;99.90
24226;DHT22;51462;51.422;5.514;2023-07-29T03:36:47;18.40;99.90
24226;DHT22;51462;51.422;5.514;2023-07-29T03:39:14;18.30;99.90
24226;DHT22;51462;51.422;5.514;2023-07-29T03:41:39;18.40;99.90
24226;DHT22;51462;51.422;5.514;2023-07-29T03:44:05;18.20;99.90
24226;DHT22;51462;51.422;5.514;2023-07-29T03:46:31;18.00;99.90
24226;DHT22;51462;51.422;5.514;2023-07-29T03:48:57;18.20;99.90
24226;DHT22;51462;51.422;5.514;2023-07-29T03:51:22;18.40;99.90
24226;DHT22;51462;51.422;5.514;2023-07-29T03:53:49;18.30;99.90
24226;DHT22;51462;51.422;5.514;2023-07-29T03:56:15;18.40;99.90
24226;DHT22;51462;51.422;5.514;2023-07-29T03:58:41;18.30;99.90
24226;DHT22;51462;51.422;5.514;2023-07-29T04:01:06;18.30;99.90
24226;DHT22;51462;51.422;5.514;2023-07-29T04:03:33;18.50;99.90
24226;DHT22;51462;51.422;5.514;2023-07-29T04:05:59;18.40;99.90
24226;DHT22;51462;51.422;5.514;2023-07-29T04:08:25;18.30;99.90
24226;DHT22;51462;51.422;5.514;2023-07-29T04:10:50;18.10;99.90
24226;DHT22;51462;51.422;5.514;2023-07-29T04:13:16;18.00;99.90
24226;DHT22;51462;51.422;5.514;2023-07-29T04:15:42;18.30;99.90
24226;DHT22;51462;51.422;5.514;2023-07-29T04:18:07;18.20;99.90
24226;DHT22;51462;51.422;5.514;2023-07-29T04:20:33;18.20;99.90
24226;DHT22;51462;51.422;5.514;2023-07-29T04:22:59;17.90;99.90
24226;DHT22;51462;51.422;5.514;2023-07-29T04:25:24;17.80;99.90
24226;DHT22;51462;51.422;5.514;2023-07-29T04:27:50;17.70;99.90
24226;DHT22;51462;51.422;5.514;2023-07-29T04:30:16;17.80;99.90
24226;DHT22;51462;51.422;5.514;2023-07-29T04:32:41;18.00;99.90
24226;DHT22;51462;51.422;5.514;2023-07-29T04:35:08;17.90;99.90
24226;DHT22;51462;51.422;5.514;2023-07-29T04:37:34;18.30;99.90
24226;DHT22;51462;51.422;5.514;2023-07-29T04:39:59;18.40;99.90
24226;DHT22;51462;51.422;5.514;2023-07-29T04:42:25;18.20;99.90
24226;DHT22;51462;51.422;5.514;2023-07-29T04:44:51;18.40;99.90
24226;DHT22;51462;51.422;5.514;2023-07-29T04:47:16;18.20;99.90
24226;DHT22;51462;51.422;5.514;2023-07-29T04:49:42;18.10;99.90
24226;DHT22;51462;51.422;5.514;2023-07-29T04:52:07;18.00;99.90
24226;DHT22;51462;51.422;5.514;2023-07-29T04:54:33;18.20;99.90
24226;DHT22;51462;51.422;5.514;2023-07-29T04:56:59;18.00;99.90
24226;DHT22;51462;51.422;5.514;2023-07-29T04:59:24;17.90;99.90
24226;DHT22;51462;51.422;5.514;2023-07-29T05:01:50;18.00;99.90
24226;DHT22;51462;51.422;5.514;2023-07-29T05:04:15;18.00;99.90
24226;DHT22;51462;51.422;5.514;2023-07-29T05:06:41;18.00;99.90
24226;DHT22;51462;51.422;5.514;2023-07-29T05:09:14;18.40;99.90
24226;DHT22;51462;51.422;5.514;2023-07-29T05:11:41;18.30;99.90
24226;DHT22;51462;51.422;5.514;2023-07-29T05:14:06;18.20;99.90
24226;DHT22;51462;51.422;5.514;2023-07-29T05:16:32;18.20;99.90
24226;DHT22;51462;51.422;5.514;2023-07-29T05:18:57;18.20;99.90
24226;DHT22;51462;51.422;5.514;2023-07-29T05:21:23;18.30;99.90
24226;DHT22;51462;51.422;5.514;2023-07-29T05:23:49;18.30;99.90
24226;DHT22;51462;51.422;5.514;2023-07-29T05:26:14;18.40;99.90
24226;DHT22;51462;51.422;5.514;2023-07-29T05:28:40;18.10;99.90
24226;DHT22;51462;51.422;5.514;2023-07-29T05:31:05;18.10;99.90
24226;DHT22;51462;51.422;5.514;2023-07-29T05:33:31;18.20;99.90
24226;DHT22;51462;51.422;5.514;2023-07-29T05:35:56;18.50;99.90
24226;DHT22;51462;51.422;5.514;2023-07-29T05:38:22;18.20;99.90
24226;DHT22;51462;51.422;5.514;2023-07-29T05:40:48;18.10;99.90
24226;DHT22;51462;51.422;5.514;2023-07-29T05:43:14;18.10;99.90
24226;DHT22;51462;51.422;5.514;2023-07-29T05:45:40;18.10;99.90
24226;DHT22;51462;51.422;5.514;2023-07-29T05:48:05;18.10;99.90
24226;DHT22;51462;51.422;5.514;2023-07-29T05:50:31;18.20;99.90
24226;DHT22;51462;51.422;5.514;2023-07-29T05:52:57;18.40;99.90
24226;DHT22;51462;51.422;5.514;2023-07-29T05:55:22;18.30;99.90
24226;DHT22;51462;51.422;5.514;2023-07-29T05:57:48;18.40;99.90
24226;DHT22;51462;51.422;5.514;2023-07-29T06:00:13;18.50;99.90
24226;DHT22;51462;51.422;5.514;2023-07-29T06:02:39;18.40;99.90
24226;DHT22;51462;51.422;5.514;2023-07-29T06:05:06;18.40;99.90
24226;DHT22;51462;51.422;5.514;2023-07-29T06:07:32;18.40;99.90
24226;DHT22;51462;51.422;5.514;2023-07-29T06:09:59;18.50;99.90
24226;DHT22;51462;51.422;5.514;2023-07-29T06:12:25;18.60;99.90
24226;DHT22;51462;51.422;5.514;2023-07-29T06:14:51;18.60;99.90
24226;DHT22;51462;51.422;5.514;2023-07-29T06:17:16;18.50;99.90
24226;DHT22;51462;51.422;5.514;2023-07-29T06:19:42;18.40;99.90
24226;DHT22;51462;51.422;5.514;2023-07-29T06:22:09;18.60;99.90
24226;DHT22;51462;51.422;5.514;2023-07-29T06:24:35;18.60;99.90
24226;DHT22;51462;51.422;5.514;2023-07-29T06:27:01;18.60;99.90
24226;DHT22;51462;51.422;5.514;2023-07-29T06:29:27;18.60;99.90
24226;DHT22;51462;51.422;5.514;2023-07-29T06:31:52;18.70;99.90
24226;DHT22;51462;51.422;5.514;2023-07-29T06:34:18;18.90;99.90
24226;DHT22;51462;51.422;5.514;2023-07-29T06:36:44;19.00;99.90
24226;DHT22;51462;51.422;5.514;2023-07-29T06:39:10;19.00;99.90
24226;DHT22;51462;51.422;5.514;2023-07-29T06:41:35;19.00;99.90
24226;DHT22;51462;51.422;5.514;2023-07-29T06:44:01;18.90;99.90
24226;DHT22;51462;51.422;5.514;2023-07-29T06:46:26;18.80;99.90
24226;DHT22;51462;51.422;5.514;2023-07-29T06:48:52;18.90;99.90
24226;DHT22;51462;51.422;5.514;2023-07-29T06:51:18;18.90;99.90
24226;DHT22;51462;51.422;5.514;2023-07-29T06:53:43;18.90;99.90
24226;DHT22;51462;51.422;5.514;2023-07-29T06:56:09;18.90;99.90
24226;DHT22;51462;51.422;5.514;2023-07-29T06:58:35;18.90;99.90
24226;DHT22;51462;51.422;5.514;2023-07-29T07:01:00;19.00;99.90
24226;DHT22;51462;51.422;5.514;2023-07-29T07:03:26;19.10;99.90
24226;DHT22;51462;51.422;5.514;2023-07-29T07:05:51;19.20;99.90
24226;DHT22;51462;51.422;5.514;2023-07-29T07:08:17;19.10;99.90
24226;DHT22;51462;51.422;5.514;2023-07-29T07:10:43;19.00;99.90
24226;DHT22;51462;51.422;5.514;2023-07-29T07:13:08;19.10;99.90
24226;DHT22;51462;51.422;5.514;2023-07-29T07:15:34;19.10;99.90
24226;DHT22;51462;51.422;5.514;2023-07-29T07:17:59;19.10;99.90
24226;DHT22;51462;51.422;5.514;2023-07-29T07:20:25;19.20;99.90
24226;DHT22;51462;51.422;5.514;2023-07-29T07:22:50;19.30;99.90
24226;DHT22;51462;51.422;5.514;2023-07-29T07:25:16;19.30;99.90
24226;DHT22;51462;51.422;5.514;2023-07-29T07:27:42;19.50;99.90
24226;DHT22;51462;51.422;5.514;2023-07-29T07:30:07;19.60;99.90
24226;DHT22;51462;51.422;5.514;2023-07-29T07:32:33;19.50;99.90
24226;DHT22;51462;51.422;5.514;2023-07-29T07:34:59;19.50;99.90
24226;DHT22;51462;51.422;5.514;2023-07-29T07:37:24;19.50;99.90
24226;DHT22;51462;51.422;5.514;2023-07-29T07:39:50;19.40;99.90
24226;DHT22;51462;51.422;5.514;2023-07-29T07:42:15;19.50;99.90
24226;DHT22;51462;51.422;5.514;2023-07-29T07:44:41;19.50;99.90
24226;DHT22;51462;51.422;5.514;2023-07-29T07:47:07;19.50;99.90
24226;DHT22;51462;51.422;5.514;2023-07-29T07:49:32;19.60;99.90
24226;DHT22;51462;51.422;5.514;2023-07-29T07:51:58;19.70;99.90
24226;DHT22;51462;51.422;5.514;2023-07-29T07:54:23;19.70;99.90
24226;DHT22;51462;51.422;5.514;2023-07-29T07:56:49;19.60;99.90
24226;DHT22;51462;51.422;5.514;2023-07-29T07:59:15;19.70;99.90
24226;DHT22;51462;51.422;5.514;2023-07-29T08:01:40;19.80;99.90
24226;DHT22;51462;51.422;5.514;2023-07-29T08:04:06;19.80;99.90
24226;DHT22;51462;51.422;5.514;2023-07-29T08:06:32;19.90;99.90
24226;DHT22;51462;51.422;5.514;2023-07-29T08:08:58;20.00;99.90
24226;DHT22;51462;51.422;5.514;2023-07-29T08:11:24;20.10;99.90
24226;DHT22;51462;51.422;5.514;2023-07-29T08:13:50;20.20;99.90
24226;DHT22;51462;51.422;5.514;2023-07-29T08:16:16;20.30;99.90
24226;DHT22;51462;51.422;5.514;2023-07-29T08:18:41;20.30;99.90
24226;DHT22;51462;51.422;5.514;2023-07-29T08:21:07;20.30;99.90
24226;DHT22;51462;51.422;5.514;2023-07-29T08:23:34;20.40;99.90
24226;DHT22;51462;51.422;5.514;2023-07-29T08:26:01;20.40;99.90
24226;DHT22;51462;51.422;5.514;2023-07-29T08:28:38;20.40;99.90
24226;DHT22;51462;51.422;5.514;2023-07-29T08:31:04;20.30;99.90
24226;DHT22;51462;51.422;5.514;2023-07-29T08:33:30;20.30;99.90
24226;DHT22;51462;51.422;5.514;2023-07-29T08:35:57;20.20;99.90
24226;DHT22;51462;51.422;5.514;2023-07-29T08:38:22;20.20;99.90
24226;DHT22;51462;51.422;5.514;2023-07-29T08:43:31;20.30;99.90
24226;DHT22;51462;51.422;5.514;2023-07-29T08:45:58;20.40;99.90
24226;DHT22;51462;51.422;5.514;2023-07-29T08:48:41;20.40;99.90
24226;DHT22;51462;51.422;5.514;2023-07-29T08:51:09;20.50;99.90
24226;DHT22;51462;51.422;5.514;2023-07-29T08:53:36;20.50;99.90
24226;DHT22;51462;51.422;5.514;2023-07-29T08:56:02;20.50;99.90
24226;DHT22;51462;51.422;5.514;2023-07-29T08:58:29;20.50;99.90
24226;DHT22;51462;51.422;5.514;2023-07-29T09:00:54;20.60;99.90
24226;DHT22;51462;51.422;5.514;2023-07-29T09:03:21;20.50;99.90
24226;DHT22;51462;51.422;5.514;2023-07-29T09:05:47;20.50;99.90
24226;DHT22;51462;51.422;5.514;2023-07-29T09:08:13;20.60;99.90
24226;DHT22;51462;51.422;5.514;2023-07-29T09:10:39;20.80;99.90
24226;DHT22;51462;51.422;5.514;2023-07-29T09:13:05;20.80;99.90
24226;DHT22;51462;51.422;5.514;2023-07-29T09:15:33;20.80;99.90
24226;DHT22;51462;51.422;5.514;2023-07-29T09:18:08;20.70;99.90
24226;DHT22;51462;51.422;5.514;2023-07-29T09:20:34;20.70;99.90
24226;DHT22;51462;51.422;5.514;2023-07-29T09:23:00;20.80;99.90
24226;DHT22;51462;51.422;5.514;2023-07-29T09:25:27;20.90;99.90
24226;DHT22;51462;51.422;5.514;2023-07-29T09:27:58;21.10;99.90
24226;DHT22;51462;51.422;5.514;2023-07-29T09:30:25;21.20;99.90
24226;DHT22;51462;51.422;5.514;2023-07-29T09:32:57;21.10;99.90
24226;DHT22;51462;51.422;5.514;2023-07-29T09:35:24;21.10;99.90
24226;DHT22;51462;51.422;5.514;2023-07-29T09:37:51;21.00;99.90
24226;DHT22;51462;51.422;5.514;2023-07-29T09:40:17;21.10;99.90
24226;DHT22;51462;51.422;5.514;2023-07-29T09:45:25;21.20;99.90
24226;DHT22;51462;51.422;5.514;2023-07-29T09:47:53;21.30;99.90
24226;DHT22;51462;51.422;5.514;2023-07-29T09:50:19;21.30;99.90
24226;DHT22;51462;51.422;5.514;2023-07-29T09:52:48;21.50;99.90
24226;DHT22;51462;51.422;5.514;2023-07-29T09:55:17;21.40;99.90
24226;DHT22;51462;51.422;5.514;2023-07-29T09:57:44;21.30;99.90
24226;DHT22;51462;51.422;5.514;2023-07-29T10:00:13;21.30;99.90
24226;DHT22;51462;51.422;5.514;2023-07-29T10:02:40;21.30;99.90
24226;DHT22;51462;51.422;5.514;2023-07-29T10:05:07;21.40;99.90
24226;DHT22;51462;51.422;5.514;2023-07-29T10:07:37;21.40;99.90
24226;DHT22;51462;51.422;5.514;2023-07-29T10:10:04;21.40;99.90
24226;DHT22;51462;51.422;5.514;2023-07-29T10:12:31;21.30;99.90
24226;DHT22;51462;51.422;5.514;2023-07-29T10:15:05;21.20;99.90
24226;DHT22;51462;51.422;5.514;2023-07-29T10:17:35;21.30;99.90
24226;DHT22;51462;51.422;5.514;2023-07-29T10:20:06;21.40;99.90
24226;DHT22;51462;51.422;5.514;2023-07-29T10:22:40;21.50;99.90
24226;DHT22;51462;51.422;5.514;2023-07-29T10:25:15;21.60;99.90
24226;DHT22;51462;51.422;5.514;2023-07-29T10:28:04;21.60;99.90
24226;DHT22;51462;51.422;5.514;2023-07-29T10:30:30;21.70;99.90
24226;DHT22;51462;51.422;5.514;2023-07-29T10:32:58;21.80;99.90
24226;DHT22;51462;51.422;5.514;2023-07-29T10:35:24;21.70;99.90
24226;DHT22;51462;51.422;5.514;2023-07-29T10:37:51;21.90;99.90
24226;DHT22;51462;51.422;5.514;2023-07-29T10:40:19;22.00;99.90
24226;DHT22;51462;51.422;5.514;2023-07-29T10:43:11;21.90;99.90
24226;DHT22;51462;51.422;5.514;2023-07-29T10:45:39;21.80;99.90
24226;DHT22;51462;51.422;5.514;2023-07-29T10:48:10;21.80;99.90
24226;DHT22;51462;51.422;5.514;2023-07-29T10:50:35;21.80;99.90
24226;DHT22;51462;51.422;5.514;2023-07-29T10:53:01;21.90;99.90
24226;DHT22;51462;51.422;5.514;2023-07-29T11:00:33;22.00;99.90
24226;DHT22;51462;51.422;5.514;2023-07-29T11:03:01;22.00;99.90
24226;DHT22;51462;51.422;5.514;2023-07-29T11:05:47;21.90;99.90
24226;DHT22;51462;51.422;5.514;2023-07-29T11:08:32;21.90;99.90
24226;DHT22;51462;51.422;5.514;2023-07-29T11:11:01;22.00;99.90
24226;DHT22;51462;51.422;5.514;2023-07-29T11:13:28;22.00;99.90
24226;DHT22;51462;51.422;5.514;2023-07-29T11:15:54;22.10;99.90
24226;DHT22;51462;51.422;5.514;2023-07-29T11:18:20;22.00;99.90
24226;DHT22;51462;51.422;5.514;2023-07-29T11:20:46;22.00;99.90
24226;DHT22;51462;51.422;5.514;2023-07-29T11:23:13;22.00;99.90
24226;DHT22;51462;51.422;5.514;2023-07-29T11:25:39;22.20;99.90
24226;DHT22;51462;51.422;5.514;2023-07-29T11:28:05;22.10;99.90
24226;DHT22;51462;51.422;5.514;2023-07-29T11:30:30;22.00;99.90
24226;DHT22;51462;51.422;5.514;2023-07-29T11:32:58;22.00;99.90
24226;DHT22;51462;51.422;5.514;2023-07-29T11:35:24;21.90;99.90
24226;DHT22;51462;51.422;5.514;2023-07-29T11:37:51;21.80;99.90
24226;DHT22;51462;51.422;5.514;2023-07-29T11:40:18;21.90;99.90
24226;DHT22;51462;51.422;5.514;2023-07-29T11:42:45;21.90;99.90
24226;DHT22;51462;51.422;5.514;2023-07-29T11:45:12;21.50;99.90
24226;DHT22;51462;51.422;5.514;2023-07-29T11:47:38;21.60;99.90
24226;DHT22;51462;51.422;5.514;2023-07-29T11:50:08;21.90;99.90
24226;DHT22;51462;51.422;5.514;2023-07-29T11:52:39;22.00;99.90
24226;DHT22;51462;51.422;5.514;2023-07-29T11:55:05;22.00;99.90
24226;DHT22;51462;51.422;5.514;2023-07-29T11:57:35;22.00;99.90
24226;DHT22;51462;51.422;5.514;2023-07-29T12:00:05;22.00;99.90
24226;DHT22;51462;51.422;5.514;2023-07-29T12:02:32;22.10;99.90
24226;DHT22;51462;51.422;5.514;2023-07-29T12:04:58;22.10;99.90
24226;DHT22;51462;51.422;5.514;2023-07-29T12:07:24;22.10;99.90
24226;DHT22;51462;51.422;5.514;2023-07-29T12:09:50;22.10;99.90
24226;DHT22;51462;51.422;5.514;2023-07-29T12:12:17;22.20;99.90
24226;DHT22;51462;51.422;5.514;2023-07-29T12:14:44;22.00;99.90
24226;DHT22;51462;51.422;5.514;2023-07-29T12:17:11;21.80;99.90
24226;DHT22;51462;51.422;5.514;2023-07-29T12:19:38;21.70;99.90
24226;DHT22;51462;51.422;5.514;2023-07-29T12:22:05;21.60;99.90
24226;DHT22;51462;51.422;5.514;2023-07-29T12:24:35;21.60;99.90
24226;DHT22;51462;51.422;5.514;2023-07-29T12:27:01;21.60;99.90
24226;DHT22;51462;51.422;5.514;2023-07-29T12:29:27;21.40;99.90
24226;DHT22;51462;51.422;5.514;2023-07-29T12:31:59;21.30;99.90
24226;DHT22;51462;51.422;5.514;2023-07-29T12:34:27;21.10;99.90
24226;DHT22;51462;51.422;5.514;2023-07-29T12:36:54;21.10;99.90
24226;DHT22;51462;51.422;5.514;2023-07-29T12:39:28;20.60;99.90
24226;DHT22;51462;51.422;5.514;2023-07-29T12:41:56;20.20;99.90
24226;DHT22;51462;51.422;5.514;2023-07-29T12:44:31;19.10;99.90
24226;DHT22;51462;51.422;5.514;2023-07-29T12:46:56;18.90;99.90
24226;DHT22;51462;51.422;5.514;2023-07-29T12:49:22;18.90;99.90
24226;DHT22;51462;51.422;5.514;2023-07-29T12:51:48;18.90;99.90
24226;DHT22;51462;51.422;5.514;2023-07-29T12:54:14;18.90;99.90
24226;DHT22;51462;51.422;5.514;2023-07-29T12:56:39;18.80;99.90
24226;DHT22;51462;51.422;5.514;2023-07-29T12:59:05;19.00;99.90
24226;DHT22;51462;51.422;5.514;2023-07-29T13:01:31;19.20;99.90
24226;DHT22;51462;51.422;5.514;2023-07-29T13:03:57;19.60;99.90
24226;DHT22;51462;51.422;5.514;2023-07-29T13:06:22;19.70;99.90
24226;DHT22;51462;51.422;5.514;2023-07-29T13:08:48;20.00;99.90
24226;DHT22;51462;51.422;5.514;2023-07-29T13:11:15;20.30;99.90
24226;DHT22;51462;51.422;5.514;2023-07-29T13:13:41;20.50;99.90
24226;DHT22;51462;51.422;5.514;2023-07-29T13:16:07;20.80;99.90
24226;DHT22;51462;51.422;5.514;2023-07-29T13:18:33;21.10;99.90
24226;DHT22;51462;51.422;5.514;2023-07-29T13:20:59;21.30;99.90
24226;DHT22;51462;51.422;5.514;2023-07-29T13:23:26;21.50;99.90
24226;DHT22;51462;51.422;5.514;2023-07-29T13:25:52;21.80;99.90
24226;DHT22;51462;51.422;5.514;2023-07-29T13:28:17;21.90;99.90
24226;DHT22;51462;51.422;5.514;2023-07-29T13:30:44;21.90;99.90
24226;DHT22;51462;51.422;5.514;2023-07-29T13:33:10;22.20;99.90
24226;DHT22;51462;51.422;5.514;2023-07-29T13:35:36;22.20;99.90
24226;DHT22;51462;51.422;5.514;2023-07-29T13:38:01;22.40;99.90
24226;DHT22;51462;51.422;5.514;2023-07-29T13:40:27;22.70;99.90
24226;DHT22;51462;51.422;5.514;2023-07-29T13:42:54;22.90;99.90
24226;DHT22;51462;51.422;5.514;2023-07-29T13:45:20;23.10;99.90
24226;DHT22;51462;51.422;5.514;2023-07-29T13:47:45;23.50;99.90
24226;DHT22;51462;51.422;5.514;2023-07-29T13:50:11;23.80;99.90
24226;DHT22;51462;51.422;5.514;2023-07-29T13:52:37;23.60;99.90
24226;DHT22;51462;51.422;5.514;2023-07-29T13:55:04;24.00;99.90
24226;DHT22;51462;51.422;5.514;2023-07-29T13:57:30;24.60;99.90
24226;DHT22;51462;51.422;5.514;2023-07-29T13:59:55;24.30;99.90
24226;DHT22;51462;51.422;5.514;2023-07-29T14:02:21;24.60;99.90
24226;DHT22;51462;51.422;5.514;2023-07-29T14:04:46;25.10;99.90
24226;DHT22;51462;51.422;5.514;2023-07-29T14:07:12;25.20;99.90
24226;DHT22;51462;51.422;5.514;2023-07-29T14:09:38;25.50;99.90
24226;DHT22;51462;51.422;5.514;2023-07-29T14:12:04;26.00;99.90
24226;DHT22;51462;51.422;5.514;2023-07-29T14:14:30;25.90;99.90
24226;DHT22;51462;51.422;5.514;2023-07-29T14:16:56;25.90;99.90
24226;DHT22;51462;51.422;5.514;2023-07-29T14:19:21;25.80;99.90
24226;DHT22;51462;51.422;5.514;2023-07-29T14:21:48;25.30;99.90
24226;DHT22;51462;51.422;5.514;2023-07-29T14:24:13;25.50;99.90
24226;DHT22;51462;51.422;5.514;2023-07-29T14:26:40;25.50;99.90
24226;DHT22;51462;51.422;5.514;2023-07-29T14:29:05;25.50;99.90
24226;DHT22;51462;51.422;5.514;2023-07-29T14:31:31;25.20;99.90
24226;DHT22;51462;51.422;5.514;2023-07-29T14:33:57;24.80;99.90
24226;DHT22;51462;51.422;5.514;2023-07-29T14:36:23;24.80;99.90
24226;DHT22;51462;51.422;5.514;2023-07-29T14:38:49;24.70;99.90
24226;DHT22;51462;51.422;5.514;2023-07-29T14:41:15;24.80;99.90
24226;DHT22;51462;51.422;5.514;2023-07-29T14:43:40;24.90;99.90
24226;DHT22;51462;51.422;5.514;2023-07-29T14:46:06;25.00;99.90
24226;DHT22;51462;51.422;5.514;2023-07-29T14:48:32;25.50;99.90
24226;DHT22;51462;51.422;5.514;2023-07-29T14:50:57;25.20;99.90
24226;DHT22;51462;51.422;5.514;2023-07-29T14:53:23;25.40;99.90
24226;DHT22;51462;51.422;5.514;2023-07-29T14:55:49;25.40;99.90
24226;DHT22;51462;51.422;5.514;2023-07-29T14:58:14;25.40;99.90
24226;DHT22;51462;51.422;5.514;2023-07-29T15:00:40;25.20;99.90
24226;DHT22;51462;51.422;5.514;2023-07-29T15:03:06;24.80;99.90
24226;DHT22;51462;51.422;5.514;2023-07-29T15:05:32;24.80;99.90
24226;DHT22;51462;51.422;5.514;2023-07-29T15:07:58;24.80;99.90
24226;DHT22;51462;51.422;5.514;2023-07-29T15:10:24;24.70;99.90
24226;DHT22;51462;51.422;5.514;2023-07-29T15:12:49;24.80;99.90
24226;DHT22;51462;51.422;5.514;2023-07-29T15:15:15;24.80;99.90
24226;DHT22;51462;51.422;5.514;2023-07-29T15:17:41;24.90;99.90
24226;DHT22;51462;51.422;5.514;2023-07-29T15:20:06;24.90;99.90
24226;DHT22;51462;51.422;5.514;2023-07-29T15:22:33;24.70;99.90
24226;DHT22;51462;51.422;5.514;2023-07-29T15:24:58;25.00;99.90
24226;DHT22;51462;51.422;5.514;2023-07-29T15:27:27;24.80;99.90
24226;DHT22;51462;51.422;5.514;2023-07-29T15:29:53;24.70;99.90
24226;DHT22;51462;51.422;5.514;2023-07-29T15:32:19;24.50;99.90
24226;DHT22;51462;51.422;5.514;2023-07-29T15:34:44;24.50;99.90
24226;DHT22;51462;51.422;5.514;2023-07-29T15:37:10;24.60;99.90
24226;DHT22;51462;51.422;5.514;2023-07-29T15:39:36;24.50;99.90
24226;DHT22;51462;51.422;5.514;2023-07-29T15:42:01;24.50;99.90